sensor_id;sensor_type;location;lat;lon;timestamp;P1;durP1;ratioP1;P2;durP2;ratioP2
47429;SDS011;33181;49.246;7.372;2023-06-22T00:00:57;18.43;;;14.70;;
47429;SDS011;33181;49.246;7.372;2023-06-22T00:03:24;17.87;;;15.53;;
47429;SDS011;33181;49.246;7.372;2023-06-22T00:05:51;17.07;;;14.70;;
47429;SDS011;33181;49.246;7.372;2023-06-22T00:08:18;19.87;;;15.17;;
47429;SDS011;33181;49.246;7.372;2023-06-22T00:10:44;21.37;;;15.73;;
47429;SDS011;33181;49.246;7.372;2023-06-22T00:13:11;16.00;;;13.50;;
47429;SDS011;33181;49.246;7.372;2023-06-22T00:15:39;17.47;;;14.10;;
47429;SDS011;33181;49.246;7.372;2023-06-22T00:18:06;14.27;;;12.77;;
47429;SDS011;33181;49.246;7.372;2023-06-22T00:20:33;16.00;;;12.60;;
47429;SDS011;33181;49.246;7.372;2023-06-22T00:23:02;17.13;;;13.00;;
47429;SDS011;33181;49.246;7.372;2023-06-22T00:25:36;15.07;;;11.97;;
47429;SDS011;33181;49.246;7.372;2023-06-22T00:28:08;13.67;;;12.13;;
47429;SDS011;33181;49.246;7.372;2023-06-22T00:30:34;14.13;;;11.80;;
47429;SDS011;33181;49.246;7.372;2023-06-22T00:33:01;14.60;;;12.20;;
47429;SDS011;33181;49.246;7.372;2023-06-22T00:35:27;16.20;;;13.60;;
47429;SDS011;33181;49.246;7.372;2023-06-22T00:37:58;17.17;;;14.37;;
47429;SDS011;33181;49.246;7.372;2023-06-22T00:40:30;18.50;;;14.03;;
47429;SDS011;33181;49.246;7.372;2023-06-22T00:42:58;17.70;;;13.60;;
47429;SDS011;33181;49.246;7.372;2023-06-22T00:45:24;17.83;;;14.63;;
47429;SDS011;33181;49.246;7.372;2023-06-22T00:47:52;17.40;;;13.90;;
47429;SDS011;33181;49.246;7.372;2023-06-22T00:50:20;17.13;;;13.90;;
47429;SDS011;33181;49.246;7.372;2023-06-22T00:52:52;16.23;;;12.87;;
47429;SDS011;33181;49.246;7.372;2023-06-22T00:55:24;14.23;;;12.13;;
47429;SDS011;33181;49.246;7.372;2023-06-22T00:57:53;18.53;;;12.90;;
47429;SDS011;33181;49.246;7.372;2023-06-22T01:00:23;14.90;;;11.67;;
47429;SDS011;33181;49.246;7.372;2023-06-22T01:02:53;16.33;;;11.87;;
47429;SDS011;33181;49.246;7.372;2023-06-22T01:05:20;14.93;;;12.13;;
47429;SDS011;33181;49.246;7.372;2023-06-22T01:10:26;14.93;;;12.00;;
47429;SDS011;33181;49.246;7.372;2023-06-22T01:13:00;15.00;;;11.83;;
47429;SDS011;33181;49.246;7.372;2023-06-22T01:15:40;15.00;;;12.43;;
47429;SDS011;33181;49.246;7.372;2023-06-22T01:18:44;14.17;;;11.77;;
47429;SDS011;33181;49.246;7.372;2023-06-22T01:21:13;16.77;;;12.80;;
47429;SDS011;33181;49.246;7.372;2023-06-22T01:23:58;14.30;;;12.10;;
47429;SDS011;33181;49.246;7.372;2023-06-22T01:29:42;13.90;;;11.77;;
47429;SDS011;33181;49.246;7.372;2023-06-22T01:32:09;13.93;;;11.50;;
47429;SDS011;33181;49.246;7.372;2023-06-22T01:34:36;15.50;;;12.10;;
47429;SDS011;33181;49.246;7.372;2023-06-22T01:37:05;14.10;;;11.90;;
47429;SDS011;33181;49.246;7.372;2023-06-22T01:39:32;15.43;;;12.07;;
47429;SDS011;33181;49.246;7.372;2023-06-22T01:41:58;14.20;;;12.20;;
47429;SDS011;33181;49.246;7.372;2023-06-22T01:44:25;16.00;;;12.03;;
47429;SDS011;33181;49.246;7.372;2023-06-22T01:46:51;15.93;;;12.27;;
47429;SDS011;33181;49.246;7.372;2023-06-22T01:49:18;12.50;;;10.60;;
47429;SDS011;33181;49.246;7.372;2023-06-22T01:51:44;15.97;;;12.63;;
47429;SDS011;33181;49.246;7.372;2023-06-22T01:54:10;15.47;;;12.53;;
47429;SDS011;33181;49.246;7.372;2023-06-22T01:56:36;14.03;;;11.90;;
47429;SDS011;33181;49.246;7.372;2023-06-22T02:01:41;15.30;;;11.37;;
47429;SDS011;33181;49.246;7.372;2023-06-22T02:04:22;15.10;;;12.30;;
47429;SDS011;33181;49.246;7.372;2023-06-22T02:06:55;14.47;;;10.80;;
47429;SDS011;33181;49.246;7.372;2023-06-22T02:09:24;15.90;;;11.73;;
47429;SDS011;33181;49.246;7.372;2023-06-22T02:11:54;13.43;;;10.90;;
47429;SDS011;33181;49.246;7.372;2023-06-22T02:14:22;12.20;;;10.90;;
47429;SDS011;33181;49.246;7.372;2023-06-22T02:16:50;14.17;;;11.03;;
47429;SDS011;33181;49.246;7.372;2023-06-22T02:19:17;14.20;;;11.87;;
47429;SDS011;33181;49.246;7.372;2023-06-22T02:21:49;12.40;;;11.10;;
47429;SDS011;33181;49.246;7.372;2023-06-22T02:24:15;12.20;;;10.30;;
47429;SDS011;33181;49.246;7.372;2023-06-22T02:26:41;13.10;;;11.53;;
47429;SDS011;33181;49.246;7.372;2023-06-22T02:29:10;11.70;;;10.13;;
47429;SDS011;33181;49.246;7.372;2023-06-22T02:31:36;13.00;;;10.97;;
47429;SDS011;33181;49.246;7.372;2023-06-22T02:34:02;14.70;;;11.23;;
47429;SDS011;33181;49.246;7.372;2023-06-22T02:36:27;16.43;;;11.97;;
47429;SDS011;33181;49.246;7.372;2023-06-22T02:38:55;16.07;;;11.70;;
47429;SDS011;33181;49.246;7.372;2023-06-22T02:41:23;15.00;;;11.10;;
47429;SDS011;33181;49.246;7.372;2023-06-22T02:43:50;18.13;;;12.37;;
47429;SDS011;33181;49.246;7.372;2023-06-22T02:46:15;14.37;;;12.10;;
47429;SDS011;33181;49.246;7.372;2023-06-22T02:48:41;14.40;;;11.93;;
47429;SDS011;33181;49.246;7.372;2023-06-22T02:51:07;14.27;;;11.93;;
47429;SDS011;33181;49.246;7.372;2023-06-22T02:53:34;13.50;;;11.93;;
47429;SDS011;33181;49.246;7.372;2023-06-22T02:56:01;12.93;;;11.50;;
47429;SDS011;33181;49.246;7.372;2023-06-22T02:58:30;14.40;;;12.70;;
47429;SDS011;33181;49.246;7.372;2023-06-22T03:01:06;13.27;;;11.87;;
47429;SDS011;33181;49.246;7.372;2023-06-22T03:03:32;14.27;;;12.07;;
47429;SDS011;33181;49.246;7.372;2023-06-22T03:05:58;13.20;;;10.90;;
47429;SDS011;33181;49.246;7.372;2023-06-22T03:08:25;13.43;;;11.93;;
47429;SDS011;33181;49.246;7.372;2023-06-22T03:10:51;14.47;;;11.53;;
47429;SDS011;33181;49.246;7.372;2023-06-22T03:13:17;15.33;;;11.57;;
47429;SDS011;33181;49.246;7.372;2023-06-22T03:15:44;12.93;;;10.80;;
47429;SDS011;33181;49.246;7.372;2023-06-22T03:18:10;14.10;;;12.07;;
47429;SDS011;33181;49.246;7.372;2023-06-22T03:20:37;20.13;;;12.47;;
47429;SDS011;33181;49.246;7.372;2023-06-22T03:23:03;14.07;;;11.93;;
47429;SDS011;33181;49.246;7.372;2023-06-22T03:25:30;14.33;;;12.80;;
47429;SDS011;33181;49.246;7.372;2023-06-22T03:27:56;14.20;;;11.70;;
47429;SDS011;33181;49.246;7.372;2023-06-22T03:30:21;15.30;;;13.00;;
47429;SDS011;33181;49.246;7.372;2023-06-22T03:32:47;14.90;;;11.50;;
47429;SDS011;33181;49.246;7.372;2023-06-22T03:35:13;14.97;;;12.40;;
47429;SDS011;33181;49.246;7.372;2023-06-22T03:37:39;14.40;;;11.20;;
47429;SDS011;33181;49.246;7.372;2023-06-22T03:40:05;12.30;;;11.00;;
47429;SDS011;33181;49.246;7.372;2023-06-22T03:42:33;17.10;;;11.60;;
47429;SDS011;33181;49.246;7.372;2023-06-22T03:45:01;14.90;;;11.23;;
47429;SDS011;33181;49.246;7.372;2023-06-22T03:47:28;13.67;;;11.80;;
47429;SDS011;33181;49.246;7.372;2023-06-22T03:49:54;12.43;;;10.53;;
47429;SDS011;33181;49.246;7.372;2023-06-22T03:52:21;16.60;;;11.97;;
47429;SDS011;33181;49.246;7.372;2023-06-22T03:54:47;17.53;;;12.40;;
47429;SDS011;33181;49.246;7.372;2023-06-22T03:57:13;14.17;;;11.77;;
47429;SDS011;33181;49.246;7.372;2023-06-22T03:59:39;16.47;;;12.40;;
47429;SDS011;33181;49.246;7.372;2023-06-22T04:02:05;16.60;;;12.13;;
47429;SDS011;33181;49.246;7.372;2023-06-22T04:04:31;12.90;;;11.50;;
47429;SDS011;33181;49.246;7.372;2023-06-22T04:06:58;15.33;;;13.00;;
47429;SDS011;33181;49.246;7.372;2023-06-22T04:09:24;15.50;;;12.80;;
47429;SDS011;33181;49.246;7.372;2023-06-22T04:11:50;16.60;;;12.00;;
47429;SDS011;33181;49.246;7.372;2023-06-22T04:14:16;13.73;;;11.43;;
47429;SDS011;33181;49.246;7.372;2023-06-22T04:16:42;15.80;;;11.67;;
47429;SDS011;33181;49.246;7.372;2023-06-22T04:19:08;15.00;;;12.43;;
47429;SDS011;33181;49.246;7.372;2023-06-22T04:21:39;16.40;;;12.53;;
47429;SDS011;33181;49.246;7.372;2023-06-22T04:24:05;16.07;;;11.90;;
47429;SDS011;33181;49.246;7.372;2023-06-22T04:26:31;14.10;;;11.87;;
47429;SDS011;33181;49.246;7.372;2023-06-22T04:29:03;12.60;;;10.47;;
47429;SDS011;33181;49.246;7.372;2023-06-22T04:31:31;15.17;;;11.90;;
47429;SDS011;33181;49.246;7.372;2023-06-22T04:34:02;14.07;;;11.10;;
47429;SDS011;33181;49.246;7.372;2023-06-22T04:36:35;14.17;;;11.30;;
47429;SDS011;33181;49.246;7.372;2023-06-22T04:39:07;12.27;;;10.53;;
47429;SDS011;33181;49.246;7.372;2023-06-22T04:41:40;14.90;;;11.43;;
47429;SDS011;33181;49.246;7.372;2023-06-22T04:44:12;14.00;;;11.23;;
47429;SDS011;33181;49.246;7.372;2023-06-22T04:46:49;16.80;;;11.17;;
47429;SDS011;33181;49.246;7.372;2023-06-22T04:49:25;13.93;;;11.37;;
47429;SDS011;33181;49.246;7.372;2023-06-22T04:52:00;16.93;;;10.80;;
47429;SDS011;33181;49.246;7.372;2023-06-22T04:54:30;12.20;;;10.67;;
47429;SDS011;33181;49.246;7.372;2023-06-22T04:57:00;19.43;;;11.57;;
47429;SDS011;33181;49.246;7.372;2023-06-22T04:59:35;13.77;;;10.70;;
47429;SDS011;33181;49.246;7.372;2023-06-22T05:02:06;14.10;;;11.73;;
47429;SDS011;33181;49.246;7.372;2023-06-22T05:04:33;14.37;;;10.57;;
47429;SDS011;33181;49.246;7.372;2023-06-22T05:07:00;16.03;;;10.37;;
47429;SDS011;33181;49.246;7.372;2023-06-22T05:09:28;17.90;;;11.10;;
47429;SDS011;33181;49.246;7.372;2023-06-22T05:11:55;11.93;;;9.43;;
47429;SDS011;33181;49.246;7.372;2023-06-22T05:14:22;13.07;;;11.03;;
47429;SDS011;33181;49.246;7.372;2023-06-22T05:16:48;13.33;;;11.17;;
47429;SDS011;33181;49.246;7.372;2023-06-22T05:19:16;12.10;;;10.47;;
47429;SDS011;33181;49.246;7.372;2023-06-22T05:21:43;15.20;;;11.20;;
47429;SDS011;33181;49.246;7.372;2023-06-22T05:24:09;14.67;;;10.40;;
47429;SDS011;33181;49.246;7.372;2023-06-22T05:26:35;12.13;;;10.83;;
47429;SDS011;33181;49.246;7.372;2023-06-22T05:29:01;12.80;;;9.83;;
47429;SDS011;33181;49.246;7.372;2023-06-22T05:31:28;15.40;;;10.80;;
47429;SDS011;33181;49.246;7.372;2023-06-22T05:33:59;14.10;;;10.73;;
47429;SDS011;33181;49.246;7.372;2023-06-22T05:36:26;12.93;;;11.00;;
47429;SDS011;33181;49.246;7.372;2023-06-22T05:38:52;14.77;;;10.63;;
47429;SDS011;33181;49.246;7.372;2023-06-22T05:41:19;14.53;;;11.13;;
47429;SDS011;33181;49.246;7.372;2023-06-22T05:43:46;13.57;;;10.87;;
47429;SDS011;33181;49.246;7.372;2023-06-22T05:46:12;13.90;;;10.77;;
47429;SDS011;33181;49.246;7.372;2023-06-22T05:48:38;18.63;;;12.43;;
47429;SDS011;33181;49.246;7.372;2023-06-22T05:51:04;13.97;;;11.20;;
47429;SDS011;33181;49.246;7.372;2023-06-22T05:53:30;13.53;;;11.00;;
47429;SDS011;33181;49.246;7.372;2023-06-22T05:55:56;12.20;;;10.47;;
47429;SDS011;33181;49.246;7.372;2023-06-22T05:58:22;15.67;;;11.40;;
47429;SDS011;33181;49.246;7.372;2023-06-22T06:00:49;15.10;;;11.50;;
47429;SDS011;33181;49.246;7.372;2023-06-22T06:03:16;13.70;;;11.30;;
47429;SDS011;33181;49.246;7.372;2023-06-22T06:05:42;14.97;;;11.37;;
47429;SDS011;33181;49.246;7.372;2023-06-22T06:08:10;15.37;;;11.30;;
47429;SDS011;33181;49.246;7.372;2023-06-22T06:10:37;14.50;;;11.90;;
47429;SDS011;33181;49.246;7.372;2023-06-22T06:13:07;14.37;;;11.60;;
47429;SDS011;33181;49.246;7.372;2023-06-22T06:15:34;14.47;;;12.00;;
47429;SDS011;33181;49.246;7.372;2023-06-22T06:18:00;12.60;;;11.27;;
47429;SDS011;33181;49.246;7.372;2023-06-22T06:20:30;15.63;;;12.50;;
47429;SDS011;33181;49.246;7.372;2023-06-22T06:22:56;15.47;;;12.00;;
47429;SDS011;33181;49.246;7.372;2023-06-22T06:25:23;15.40;;;11.63;;
47429;SDS011;33181;49.246;7.372;2023-06-22T06:27:50;15.47;;;11.97;;
47429;SDS011;33181;49.246;7.372;2023-06-22T06:30:19;14.13;;;11.47;;
47429;SDS011;33181;49.246;7.372;2023-06-22T06:32:47;12.53;;;11.10;;
47429;SDS011;33181;49.246;7.372;2023-06-22T06:35:16;14.63;;;11.20;;
47429;SDS011;33181;49.246;7.372;2023-06-22T06:37:45;15.00;;;11.80;;
47429;SDS011;33181;49.246;7.372;2023-06-22T06:40:14;17.10;;;11.73;;
47429;SDS011;33181;49.246;7.372;2023-06-22T06:42:44;12.70;;;11.00;;
47429;SDS011;33181;49.246;7.372;2023-06-22T06:45:12;12.87;;;11.47;;
47429;SDS011;33181;49.246;7.372;2023-06-22T06:47:47;13.20;;;11.23;;
47429;SDS011;33181;49.246;7.372;2023-06-22T06:50:14;12.67;;;11.33;;
47429;SDS011;33181;49.246;7.372;2023-06-22T06:52:43;12.13;;;10.83;;
47429;SDS011;33181;49.246;7.372;2023-06-22T06:55:09;12.27;;;10.73;;
47429;SDS011;33181;49.246;7.372;2023-06-22T06:57:40;12.10;;;9.83;;
47429;SDS011;33181;49.246;7.372;2023-06-22T07:00:08;12.33;;;10.03;;
47429;SDS011;33181;49.246;7.372;2023-06-22T07:02:41;12.97;;;11.20;;
47429;SDS011;33181;49.246;7.372;2023-06-22T07:05:09;15.30;;;10.17;;
47429;SDS011;33181;49.246;7.372;2023-06-22T07:10:59;17.10;;;12.33;;
47429;SDS011;33181;49.246;7.372;2023-06-22T07:13:26;14.60;;;11.40;;
47429;SDS011;33181;49.246;7.372;2023-06-22T07:15:51;19.67;;;13.43;;
47429;SDS011;33181;49.246;7.372;2023-06-22T07:18:17;12.73;;;10.63;;
47429;SDS011;33181;49.246;7.372;2023-06-22T07:20:44;13.60;;;11.13;;
47429;SDS011;33181;49.246;7.372;2023-06-22T07:23:10;15.03;;;10.80;;
47429;SDS011;33181;49.246;7.372;2023-06-22T07:25:35;12.33;;;10.53;;
47429;SDS011;33181;49.246;7.372;2023-06-22T07:28:06;12.23;;;10.00;;
47429;SDS011;33181;49.246;7.372;2023-06-22T07:30:36;13.47;;;10.30;;
47429;SDS011;33181;49.246;7.372;2023-06-22T07:33:02;12.20;;;10.90;;
47429;SDS011;33181;49.246;7.372;2023-06-22T07:35:29;12.33;;;10.40;;
47429;SDS011;33181;49.246;7.372;2023-06-22T07:37:55;11.10;;;9.50;;
47429;SDS011;33181;49.246;7.372;2023-06-22T07:40:21;13.83;;;10.13;;
47429;SDS011;33181;49.246;7.372;2023-06-22T07:42:47;13.70;;;9.40;;
47429;SDS011;33181;49.246;7.372;2023-06-22T07:45:13;13.63;;;9.83;;
47429;SDS011;33181;49.246;7.372;2023-06-22T07:47:39;11.30;;;9.40;;
47429;SDS011;33181;49.246;7.372;2023-06-22T07:50:05;11.60;;;9.60;;
47429;SDS011;33181;49.246;7.372;2023-06-22T07:52:31;12.53;;;9.90;;
47429;SDS011;33181;49.246;7.372;2023-06-22T07:54:57;10.40;;;8.63;;
47429;SDS011;33181;49.246;7.372;2023-06-22T07:57:23;12.57;;;9.20;;
47429;SDS011;33181;49.246;7.372;2023-06-22T07:59:57;9.33;;;8.43;;
47429;SDS011;33181;49.246;7.372;2023-06-22T08:02:24;11.00;;;9.50;;
47429;SDS011;33181;49.246;7.372;2023-06-22T08:04:50;11.57;;;9.63;;
47429;SDS011;33181;49.246;7.372;2023-06-22T08:07:15;12.70;;;9.37;;
47429;SDS011;33181;49.246;7.372;2023-06-22T08:09:45;11.93;;;9.30;;
47429;SDS011;33181;49.246;7.372;2023-06-22T08:12:13;11.60;;;9.17;;
47429;SDS011;33181;49.246;7.372;2023-06-22T08:14:39;11.27;;;9.30;;
47429;SDS011;33181;49.246;7.372;2023-06-22T08:17:08;9.63;;;8.60;;
47429;SDS011;33181;49.246;7.372;2023-06-22T08:19:34;10.53;;;9.00;;
47429;SDS011;33181;49.246;7.372;2023-06-22T08:22:00;12.83;;;8.90;;
47429;SDS011;33181;49.246;7.372;2023-06-22T08:24:26;10.50;;;8.27;;
47429;SDS011;33181;49.246;7.372;2023-06-22T08:26:55;11.03;;;9.00;;
47429;SDS011;33181;49.246;7.372;2023-06-22T08:29:21;9.77;;;8.77;;
47429;SDS011;33181;49.246;7.372;2023-06-22T08:31:47;11.30;;;9.33;;
47429;SDS011;33181;49.246;7.372;2023-06-22T08:34:12;11.07;;;9.00;;
47429;SDS011;33181;49.246;7.372;2023-06-22T08:36:38;11.23;;;9.67;;
47429;SDS011;33181;49.246;7.372;2023-06-22T08:39:06;15.23;;;8.80;;
47429;SDS011;33181;49.246;7.372;2023-06-22T08:41:33;10.37;;;8.90;;
47429;SDS011;33181;49.246;7.372;2023-06-22T08:43:59;9.47;;;7.60;;
47429;SDS011;33181;49.246;7.372;2023-06-22T08:46:24;9.80;;;7.87;;
47429;SDS011;33181;49.246;7.372;2023-06-22T08:48:55;12.80;;;7.37;;
47429;SDS011;33181;49.246;7.372;2023-06-22T08:51:25;9.60;;;7.80;;
47429;SDS011;33181;49.246;7.372;2023-06-22T08:53:51;10.77;;;7.63;;
47429;SDS011;33181;49.246;7.372;2023-06-22T08:56:17;10.57;;;8.23;;
47429;SDS011;33181;49.246;7.372;2023-06-22T08:58:44;12.30;;;7.93;;
47429;SDS011;33181;49.246;7.372;2023-06-22T09:01:09;13.20;;;8.57;;
47429;SDS011;33181;49.246;7.372;2023-06-22T09:03:35;12.00;;;7.57;;
47429;SDS011;33181;49.246;7.372;2023-06-22T09:06:02;11.17;;;7.60;;
47429;SDS011;33181;49.246;7.372;2023-06-22T09:08:28;11.70;;;8.10;;
47429;SDS011;33181;49.246;7.372;2023-06-22T09:10:54;11.33;;;7.70;;
47429;SDS011;33181;49.246;7.372;2023-06-22T09:13:20;11.30;;;8.00;;
47429;SDS011;33181;49.246;7.372;2023-06-22T09:15:47;11.43;;;7.10;;
47429;SDS011;33181;49.246;7.372;2023-06-22T09:18:13;10.93;;;7.80;;
47429;SDS011;33181;49.246;7.372;2023-06-22T09:20:39;14.90;;;7.63;;
47429;SDS011;33181;49.246;7.372;2023-06-22T09:23:05;9.00;;;7.83;;
47429;SDS011;33181;49.246;7.372;2023-06-22T09:25:30;12.70;;;8.10;;
47429;SDS011;33181;49.246;7.372;2023-06-22T09:27:56;9.17;;;7.23;;
47429;SDS011;33181;49.246;7.372;2023-06-22T09:30:22;11.03;;;8.60;;
47429;SDS011;33181;49.246;7.372;2023-06-22T09:32:48;11.23;;;8.20;;
47429;SDS011;33181;49.246;7.372;2023-06-22T09:35:14;12.20;;;7.10;;
47429;SDS011;33181;49.246;7.372;2023-06-22T09:37:40;12.13;;;7.90;;
47429;SDS011;33181;49.246;7.372;2023-06-22T09:40:06;10.80;;;8.10;;
47429;SDS011;33181;49.246;7.372;2023-06-22T09:42:35;9.00;;;7.27;;
47429;SDS011;33181;49.246;7.372;2023-06-22T09:45:01;9.93;;;7.60;;
47429;SDS011;33181;49.246;7.372;2023-06-22T09:47:29;11.83;;;7.83;;
47429;SDS011;33181;49.246;7.372;2023-06-22T09:49:56;9.80;;;7.67;;
47429;SDS011;33181;49.246;7.372;2023-06-22T09:52:24;11.43;;;8.10;;
47429;SDS011;33181;49.246;7.372;2023-06-22T09:54:53;13.10;;;7.80;;
47429;SDS011;33181;49.246;7.372;2023-06-22T09:57:19;11.90;;;8.20;;
47429;SDS011;33181;49.246;7.372;2023-06-22T09:59:45;11.83;;;7.53;;
47429;SDS011;33181;49.246;7.372;2023-06-22T10:02:20;12.07;;;7.30;;
47429;SDS011;33181;49.246;7.372;2023-06-22T10:04:52;10.07;;;7.53;;
47429;SDS011;33181;49.246;7.372;2023-06-22T10:07:32;11.20;;;8.70;;
47429;SDS011;33181;49.246;7.372;2023-06-22T10:09:59;11.73;;;7.73;;
47429;SDS011;33181;49.246;7.372;2023-06-22T10:12:27;14.33;;;8.00;;
47429;SDS011;33181;49.246;7.372;2023-06-22T10:14:53;13.63;;;8.13;;
47429;SDS011;33181;49.246;7.372;2023-06-22T10:17:28;15.20;;;7.20;;
47429;SDS011;33181;49.246;7.372;2023-06-22T10:19:56;13.97;;;7.73;;
47429;SDS011;33181;49.246;7.372;2023-06-22T10:22:25;12.50;;;8.00;;
47429;SDS011;33181;49.246;7.372;2023-06-22T10:24:56;13.33;;;8.10;;
47429;SDS011;33181;49.246;7.372;2023-06-22T10:27:22;12.33;;;8.00;;
47429;SDS011;33181;49.246;7.372;2023-06-22T10:29:48;11.33;;;8.00;;
47429;SDS011;33181;49.246;7.372;2023-06-22T10:32:14;12.87;;;8.50;;
47429;SDS011;33181;49.246;7.372;2023-06-22T10:34:43;9.30;;;8.00;;
47429;SDS011;33181;49.246;7.372;2023-06-22T10:37:11;11.27;;;7.47;;
47429;SDS011;33181;49.246;7.372;2023-06-22T10:39:37;9.87;;;7.03;;
47429;SDS011;33181;49.246;7.372;2023-06-22T10:42:03;11.40;;;7.80;;
47429;SDS011;33181;49.246;7.372;2023-06-22T10:44:29;12.80;;;7.80;;
47429;SDS011;33181;49.246;7.372;2023-06-22T10:47:09;13.43;;;8.07;;
47429;SDS011;33181;49.246;7.372;2023-06-22T10:49:37;11.70;;;7.63;;
47429;SDS011;33181;49.246;7.372;2023-06-22T10:52:06;14.50;;;7.63;;
47429;SDS011;33181;49.246;7.372;2023-06-22T10:54:36;11.33;;;7.00;;
47429;SDS011;33181;49.246;7.372;2023-06-22T10:57:03;12.80;;;7.37;;
47429;SDS011;33181;49.246;7.372;2023-06-22T10:59:30;11.80;;;6.60;;
47429;SDS011;33181;49.246;7.372;2023-06-22T11:01:56;15.73;;;7.77;;
47429;SDS011;33181;49.246;7.372;2023-06-22T11:04:23;10.50;;;7.30;;
47429;SDS011;33181;49.246;7.372;2023-06-22T11:06:50;10.23;;;7.47;;
47429;SDS011;33181;49.246;7.372;2023-06-22T11:09:16;12.30;;;6.90;;
47429;SDS011;33181;49.246;7.372;2023-06-22T11:11:46;10.40;;;6.97;;
47429;SDS011;33181;49.246;7.372;2023-06-22T11:14:15;18.03;;;7.10;;
47429;SDS011;33181;49.246;7.372;2023-06-22T11:16:41;13.00;;;7.60;;
47429;SDS011;33181;49.246;7.372;2023-06-22T11:19:09;10.33;;;7.10;;
47429;SDS011;33181;49.246;7.372;2023-06-22T11:21:34;15.83;;;7.70;;
47429;SDS011;33181;49.246;7.372;2023-06-22T11:24:00;14.03;;;7.50;;
47429;SDS011;33181;49.246;7.372;2023-06-22T11:26:26;12.97;;;7.00;;
47429;SDS011;33181;49.246;7.372;2023-06-22T11:28:52;10.67;;;7.20;;
47429;SDS011;33181;49.246;7.372;2023-06-22T11:31:18;13.20;;;7.10;;
47429;SDS011;33181;49.246;7.372;2023-06-22T11:33:44;12.53;;;7.10;;
47429;SDS011;33181;49.246;7.372;2023-06-22T11:36:12;13.70;;;7.20;;
47429;SDS011;33181;49.246;7.372;2023-06-22T11:38:43;11.90;;;7.27;;
47429;SDS011;33181;49.246;7.372;2023-06-22T11:41:10;10.80;;;7.47;;
47429;SDS011;33181;49.246;7.372;2023-06-22T11:43:36;17.33;;;7.37;;
47429;SDS011;33181;49.246;7.372;2023-06-22T11:46:02;14.20;;;6.90;;
47429;SDS011;33181;49.246;7.372;2023-06-22T11:48:29;13.10;;;7.67;;
47429;SDS011;33181;49.246;7.372;2023-06-22T11:50:55;10.93;;;7.40;;
47429;SDS011;33181;49.246;7.372;2023-06-22T11:53:23;13.10;;;7.53;;
47429;SDS011;33181;49.246;7.372;2023-06-22T11:55:50;15.50;;;7.63;;
47429;SDS011;33181;49.246;7.372;2023-06-22T11:58:18;9.10;;;7.40;;
47429;SDS011;33181;49.246;7.372;2023-06-22T12:00:45;10.77;;;7.97;;
47429;SDS011;33181;49.246;7.372;2023-06-22T12:03:11;11.20;;;7.93;;
47429;SDS011;33181;49.246;7.372;2023-06-22T12:05:41;18.17;;;8.00;;
47429;SDS011;33181;49.246;7.372;2023-06-22T12:08:07;13.07;;;7.63;;
47429;SDS011;33181;49.246;7.372;2023-06-22T12:10:33;13.30;;;7.77;;
47429;SDS011;33181;49.246;7.372;2023-06-22T12:13:08;12.47;;;8.57;;
47429;SDS011;33181;49.246;7.372;2023-06-22T12:15:47;17.20;;;8.03;;
47429;SDS011;33181;49.246;7.372;2023-06-22T12:18:14;18.27;;;8.40;;
47429;SDS011;33181;49.246;7.372;2023-06-22T12:20:40;12.57;;;8.53;;
47429;SDS011;33181;49.246;7.372;2023-06-22T12:23:06;12.90;;;8.70;;
47429;SDS011;33181;49.246;7.372;2023-06-22T12:25:32;14.77;;;8.63;;
47429;SDS011;33181;49.246;7.372;2023-06-22T12:27:58;16.07;;;8.10;;
47429;SDS011;33181;49.246;7.372;2023-06-22T12:30:24;14.83;;;8.37;;
47429;SDS011;33181;49.246;7.372;2023-06-22T12:32:49;17.80;;;8.40;;
47429;SDS011;33181;49.246;7.372;2023-06-22T12:35:16;19.37;;;8.77;;
47429;SDS011;33181;49.246;7.372;2023-06-22T12:37:42;12.37;;;7.87;;
47429;SDS011;33181;49.246;7.372;2023-06-22T12:40:09;14.60;;;8.40;;
47429;SDS011;33181;49.246;7.372;2023-06-22T12:42:35;14.77;;;8.50;;
47429;SDS011;33181;49.246;7.372;2023-06-22T12:45:05;12.93;;;8.07;;
47429;SDS011;33181;49.246;7.372;2023-06-22T12:47:31;12.73;;;7.70;;
47429;SDS011;33181;49.246;7.372;2023-06-22T12:49:57;17.30;;;8.33;;
47429;SDS011;33181;49.246;7.372;2023-06-22T12:52:23;11.93;;;8.03;;
47429;SDS011;33181;49.246;7.372;2023-06-22T12:54:49;18.70;;;7.93;;
47429;SDS011;33181;49.246;7.372;2023-06-22T12:57:14;17.23;;;8.50;;
47429;SDS011;33181;49.246;7.372;2023-06-22T12:59:40;18.13;;;8.03;;
47429;SDS011;33181;49.246;7.372;2023-06-22T13:02:06;18.77;;;8.90;;
47429;SDS011;33181;49.246;7.372;2023-06-22T13:04:32;15.53;;;8.33;;
47429;SDS011;33181;49.246;7.372;2023-06-22T13:06:58;17.00;;;8.37;;
47429;SDS011;33181;49.246;7.372;2023-06-22T13:09:27;15.20;;;7.90;;
47429;SDS011;33181;49.246;7.372;2023-06-22T13:11:53;17.10;;;7.13;;
47429;SDS011;33181;49.246;7.372;2023-06-22T13:14:19;20.83;;;6.93;;
47429;SDS011;33181;49.246;7.372;2023-06-22T13:16:45;18.23;;;8.00;;
47429;SDS011;33181;49.246;7.372;2023-06-22T13:19:11;12.90;;;8.33;;
47429;SDS011;33181;49.246;7.372;2023-06-22T13:21:37;17.03;;;7.40;;
47429;SDS011;33181;49.246;7.372;2023-06-22T13:24:03;18.50;;;6.43;;
47429;SDS011;33181;49.246;7.372;2023-06-22T13:26:31;14.47;;;6.20;;
47429;SDS011;33181;49.246;7.372;2023-06-22T13:28:58;17.93;;;6.60;;
47429;SDS011;33181;49.246;7.372;2023-06-22T13:31:24;23.97;;;6.57;;
47429;SDS011;33181;49.246;7.372;2023-06-22T13:33:49;18.80;;;6.33;;
47429;SDS011;33181;49.246;7.372;2023-06-22T13:36:17;16.73;;;6.03;;
47429;SDS011;33181;49.246;7.372;2023-06-22T13:38:44;14.00;;;6.20;;
47429;SDS011;33181;49.246;7.372;2023-06-22T13:41:10;15.77;;;6.10;;
47429;SDS011;33181;49.246;7.372;2023-06-22T13:43:36;18.20;;;7.07;;
47429;SDS011;33181;49.246;7.372;2023-06-22T13:46:02;19.60;;;6.47;;
47429;SDS011;33181;49.246;7.372;2023-06-22T13:48:28;16.60;;;7.10;;
47429;SDS011;33181;49.246;7.372;2023-06-22T13:50:53;15.83;;;6.00;;
47429;SDS011;33181;49.246;7.372;2023-06-22T13:53:19;14.60;;;5.90;;
47429;SDS011;33181;49.246;7.372;2023-06-22T13:55:45;23.33;;;6.83;;
47429;SDS011;33181;49.246;7.372;2023-06-22T13:58:25;14.03;;;5.60;;
47429;SDS011;33181;49.246;7.372;2023-06-22T14:00:58;19.10;;;5.60;;
47429;SDS011;33181;49.246;7.372;2023-06-22T14:03:27;17.40;;;5.90;;
47429;SDS011;33181;49.246;7.372;2023-06-22T14:05:53;15.57;;;5.70;;
47429;SDS011;33181;49.246;7.372;2023-06-22T14:08:20;14.43;;;4.80;;
47429;SDS011;33181;49.246;7.372;2023-06-22T14:10:48;20.33;;;6.00;;
47429;SDS011;33181;49.246;7.372;2023-06-22T14:13:14;12.60;;;5.13;;
47429;SDS011;33181;49.246;7.372;2023-06-22T14:15:40;18.23;;;5.20;;
47429;SDS011;33181;49.246;7.372;2023-06-22T14:18:05;14.70;;;5.97;;
47429;SDS011;33181;49.246;7.372;2023-06-22T14:20:31;16.33;;;5.07;;
47429;SDS011;33181;49.246;7.372;2023-06-22T14:23:00;8.13;;;5.03;;
47429;SDS011;33181;49.246;7.372;2023-06-22T14:25:25;21.50;;;5.20;;
47429;SDS011;33181;49.246;7.372;2023-06-22T14:27:54;15.07;;;5.13;;
47429;SDS011;33181;49.246;7.372;2023-06-22T14:30:19;14.20;;;5.57;;
47429;SDS011;33181;49.246;7.372;2023-06-22T14:32:49;11.33;;;4.80;;
47429;SDS011;33181;49.246;7.372;2023-06-22T14:35:15;20.87;;;4.77;;
47429;SDS011;33181;49.246;7.372;2023-06-22T14:37:41;8.53;;;4.60;;
47429;SDS011;33181;49.246;7.372;2023-06-22T14:40:07;9.43;;;4.40;;
47429;SDS011;33181;49.246;7.372;2023-06-22T14:42:33;12.50;;;4.20;;